Time;durP1;ratioP1;P1;durP2;ratioP2;P2;SDS_P1;SDS_P2;PMS_P1;PMS_P2;Temp;Humidity;BMP_temperature;BMP_pressure;BME280_temperature;BME280_humidity;BME280_pressure;Samples;Min_cycle;Max_cycle;Signal;HPM_P1;HPM_P2
2024/01/16 00:01:32;;;;;;;12.55;5.57;;;;;;;-0.86;76.59;97605.56;4898284;29;20047;-77
2024/01/16 00:03:58;;;;;;;9.52;5.18;;;;;;;-0.65;76.33;97637.97;4908348;29;20587;-76
2024/01/16 00:06:24;;;;;;;8.85;4.45;;;;;;;-0.72;76.29;97641.38;4906975;29;20148;-77
2024/01/16 00:08:50;;;;;;;11.80;6.18;;;;;;;-0.85;76.45;97616.66;4910682;29;20052;-76
2024/01/16 00:11:16;;;;;;;10.27;5.38;;;;;;;-0.72;76.62;97638.81;4880821;29;20581;-74
2024/01/16 00:13:42;;;;;;;15.23;7.95;;;;;;;-0.69;75.81;97643.09;4896725;29;20039;-76
2024/01/16 00:16:08;;;;;;;7.63;3.33;;;;;;;-0.68;76.14;97645.63;4927532;29;20059;-78
2024/01/16 00:18:34;;;;;;;7.90;3.70;;;;;;;-0.68;76.37;97637.97;4910630;29;20065;-78
2024/01/16 00:21:02;;;;;;;12.95;6.03;;;;;;;-0.70;76.08;97626.91;4896477;29;20050;-79
2024/01/16 00:23:28;;;;;;;9.88;4.93;;;;;;;-0.64;75.88;97642.25;4924719;29;20043;-79
2024/01/16 00:25:54;;;;;;;7.97;3.80;;;;;;;-0.67;75.79;97637.13;4912334;29;20104;-83
2024/01/16 00:28:20;;;;;;;10.68;5.80;;;;;;;-1.40;76.25;97513.56;4913236;29;20099;-83
2024/01/16 00:30:46;;;;;;;11.23;6.05;;;;;;;-0.82;76.16;97612.41;4915078;29;20158;-82
2024/01/16 00:33:12;;;;;;;10.85;5.53;;;;;;;-0.72;76.48;97620.09;4930755;29;20040;-82
2024/01/16 00:35:38;;;;;;;13.98;7.30;;;;;;;-0.83;76.05;97591.97;4915247;29;20127;-81
2024/01/16 00:38:04;;;;;;;9.27;4.28;;;;;;;-0.73;75.46;97623.50;4911242;29;20058;-82
2024/01/16 00:40:30;;;;;;;11.95;5.93;;;;;;;-0.71;76.06;97627.75;4899487;29;20043;-82
2024/01/16 00:42:57;;;;;;;5.55;3.35;;;;;;;-0.73;75.68;97626.06;4896746;29;20043;-80
2024/01/16 00:45:23;;;;;;;9.10;4.97;;;;;;;-0.64;75.99;97644.78;4910973;29;20052;-80
2024/01/16 00:47:49;;;;;;;8.52;5.32;;;;;;;-0.69;75.55;97625.22;4926170;29;20139;-75
2024/01/16 00:50:15;;;;;;;11.27;5.78;;;;;;;-0.92;76.01;97595.38;4894807;29;20054;-79
2024/01/16 00:52:41;;;;;;;6.93;4.07;;;;;;;-0.87;75.88;97608.97;4909127;29;20043;-80
2024/01/16 00:55:07;;;;;;;7.97;3.80;;;;;;;-0.73;75.54;97626.06;4913306;29;20036;-74
2024/01/16 00:57:33;;;;;;;8.60;4.95;;;;;;;-0.77;75.92;97609.84;4896555;29;20048;-75
2024/01/16 00:59:59;;;;;;;8.20;4.40;;;;;;;-0.72;75.26;97628.59;4924757;29;20637;-75
2024/01/16 01:02:25;;;;;;;11.27;6.07;;;;;;;-0.70;75.43;97639.66;4880577;29;20095;-74
2024/01/16 01:04:51;;;;;;;7.32;3.90;;;;;;;-0.83;75.92;97614.97;4925455;29;20087;-78
2024/01/16 01:07:17;;;;;;;7.22;4.10;;;;;;;-0.72;75.58;97633.69;4908937;29;20040;-78
2024/01/16 01:09:43;;;;;;;9.13;4.65;;;;;;;-0.92;75.90;97603.03;4897413;29;20071;-78
2024/01/16 01:12:09;;;;;;;12.77;6.70;;;;;;;-0.72;75.10;97618.38;4888102;29;20082;-75
2024/01/16 01:14:35;;;;;;;9.32;5.03;;;;;;;-0.68;75.42;97625.19;4909087;29;20040;-75
2024/01/16 01:17:02;;;;;;;10.75;5.53;;;;;;;-0.62;75.12;97615.00;4905583;29;20497;-75
2024/01/16 01:19:28;;;;;;;7.85;4.05;;;;;;;-0.64;75.06;97623.50;4927843;29;20060;-79
2024/01/16 01:21:54;;;;;;;8.32;4.63;;;;;;;-0.79;75.35;97609.84;4923617;29;20072;-78
2024/01/16 01:24:20;;;;;;;7.93;5.25;;;;;;;-0.63;75.41;97646.50;4909266;29;20078;-79
2024/01/16 01:26:46;;;;;;;10.70;6.20;;;;;;;-0.83;75.00;97594.53;4927330;29;20083;-76
2024/01/16 01:29:12;;;;;;;23.20;8.85;;;;;;;-0.61;75.80;97618.38;4929307;29;20044;-83
2024/01/16 01:31:37;;;;;;;14.07;5.43;;;;;;;-0.62;75.00;97612.44;4929034;29;20121;-76
2024/01/16 01:34:04;;;;;;;6.82;3.80;;;;;;;-0.56;75.42;97628.63;4900264;29;20048;-77
2024/01/16 01:36:30;;;;;;;8.65;4.90;;;;;;;-0.62;74.84;97624.34;4896131;29;20490;-77
2024/01/16 01:38:56;;;;;;;9.48;4.55;;;;;;;-0.67;75.47;97606.47;4928734;29;20096;-77
2024/01/16 01:41:22;;;;;;;9.55;5.47;;;;;;;-0.76;75.40;97597.09;4899252;29;20059;-79
2024/01/16 01:43:48;;;;;;;9.30;5.03;;;;;;;-0.82;75.57;97589.41;4909232;29;20051;-78
2024/01/16 01:46:19;;;;;;;9.13;5.28;;;;;;;-0.67;74.68;97601.34;4896630;29;20467;-78
2024/01/16 01:48:48;;;;;;;9.67;5.10;;;;;;;-0.58;75.47;97615.00;4904505;29;20043;-78
2024/01/16 01:51:18;;;;;;;6.20;3.63;;;;;;;-0.84;74.99;97580.06;4880539;29;20075;-78
2024/01/16 01:53:46;;;;;;;11.40;6.25;;;;;;;-0.66;75.28;97603.06;4900300;29;20043;-79
2024/01/16 01:56:17;;;;;;;9.27;4.25;;;;;;;-0.76;74.47;97599.66;4913153;29;20047;-79
2024/01/16 01:58:46;;;;;;;10.77;6.03;;;;;;;-0.78;75.20;97587.75;4908535;29;20036;-79
2024/01/16 02:01:14;;;;;;;9.85;6.00;;;;;;;-0.70;74.96;97606.47;4912648;29;20353;-80
2024/01/16 02:03:45;;;;;;;8.18;4.65;;;;;;;-0.80;75.21;97584.34;4929944;29;20036;-78
2024/01/16 02:06:16;;;;;;;8.93;4.75;;;;;;;-0.79;75.09;97586.03;4915443;29;20062;-78
2024/01/16 02:08:44;;;;;;;5.70;3.08;;;;;;;-0.63;75.21;97612.41;4914281;29;20050;-77
2024/01/16 02:11:10;;;;;;;9.73;3.95;;;;;;;-0.63;74.78;97612.41;4913025;29;20044;-77
2024/01/16 02:13:37;;;;;;;8.57;4.18;;;;;;;-0.68;75.10;97625.19;4881144;29;20043;-78
2024/01/16 02:16:03;;;;;;;10.00;4.55;;;;;;;-1.07;75.13;97560.44;4897994;29;20040;-77
2024/01/16 02:18:29;;;;;;;8.75;4.35;;;;;;;-1.15;74.49;97557.00;4912653;29;20051;-78
2024/01/16 02:21:03;;;;;;;9.13;4.72;;;;;;;-0.88;74.87;97591.13;4928887;29;20035;-78
2024/01/16 02:23:30;;;;;;;5.65;3.30;;;;;;;-0.70;74.75;97634.56;4927251;29;20075;-78
2024/01/16 02:25:56;;;;;;;13.35;7.18;;;;;;;-0.72;74.45;97622.66;4930058;29;20048;-79
2024/01/16 02:28:22;;;;;;;11.63;6.88;;;;;;;-0.65;75.08;97629.44;4929164;29;20094;-78
2024/01/16 02:30:48;;;;;;;7.68;4.22;;;;;;;-0.85;74.96;97589.41;4926933;29;20080;-78
2024/01/16 02:33:14;;;;;;;6.85;4.07;;;;;;;-0.71;75.05;97627.75;4895099;29;20078;-79
2024/01/16 02:35:40;;;;;;;13.68;6.85;;;;;;;-0.66;74.72;97633.72;4884661;29;20039;-80
2024/01/16 02:38:06;;;;;;;3.15;1.85;;;;;;;-0.84;74.52;97590.28;4896515;29;20059;-77
2024/01/16 02:40:32;;;;;;;9.10;4.55;;;;;;;-0.74;75.09;97617.53;4929019;29;20123;-80
2024/01/16 02:42:58;;;;;;;8.10;4.22;;;;;;;-0.80;74.31;97625.19;4928888;29;20196;-78
2024/01/16 02:45:25;;;;;;;4.05;2.72;;;;;;;-0.73;74.88;97637.09;4915262;29;20424;-79
2024/01/16 02:47:51;;;;;;;7.22;4.47;;;;;;;-0.92;74.68;97608.97;4908807;29;20055;-77
2024/01/16 02:50:17;;;;;;;7.75;4.32;;;;;;;-1.14;74.81;97585.13;4895145;29;20094;-76
2024/01/16 02:52:43;;;;;;;9.75;4.72;;;;;;;-0.85;74.39;97624.31;4928781;29;20074;-76
2024/01/16 02:55:09;;;;;;;20.42;9.35;;;;;;;-0.78;75.09;97638.81;4912121;29;20088;-78
2024/01/16 02:57:38;;;;;;;11.18;5.53;;;;;;;-0.88;74.61;97631.97;4911865;29;20044;-77
2024/01/16 03:00:04;;;;;;;7.40;4.20;;;;;;;-0.81;74.33;97642.19;4931245;29;20039;-80
2024/01/16 03:02:31;;;;;;;10.25;5.93;;;;;;;-0.87;74.47;97644.72;4911978;29;20032;-77
2024/01/16 03:04:57;;;;;;;5.93;3.00;;;;;;;-0.88;74.25;97649.84;4913755;29;20526;-77
2024/01/16 03:07:23;;;;;;;8.45;4.68;;;;;;;-1.14;74.96;97607.22;4895526;29;20126;-78
2024/01/16 03:09:49;;;;;;;6.30;4.00;;;;;;;-1.06;74.74;97631.91;4907985;29;20056;-78
2024/01/16 03:12:15;;;;;;;11.77;5.88;;;;;;;-1.55;74.92;97545.03;4898415;29;20051;-78
2024/01/16 03:14:41;;;;;;;7.07;4.30;;;;;;;-1.33;74.80;97589.31;4915473;29;20070;-78
2024/01/16 03:17:07;;;;;;;12.38;6.35;;;;;;;-0.98;74.29;97642.16;4925006;29;20212;-76
2024/01/16 03:19:32;;;;;;;7.68;4.03;;;;;;;-1.31;74.72;97581.63;4930442;29;20606;-78
2024/01/16 03:21:58;;;;;;;8.38;4.28;;;;;;;-0.93;74.71;97643.03;4882415;29;20052;-77
2024/01/16 03:24:26;;;;;;;11.00;5.45;;;;;;;-0.92;74.89;97649.84;4926033;29;20028;-77
2024/01/16 03:26:52;;;;;;;9.82;5.38;;;;;;;-0.88;74.34;97648.13;4927016;29;20178;-78
2024/01/16 03:29:18;;;;;;;7.88;4.28;;;;;;;-1.14;74.26;97589.34;4907167;29;20048;-77
2024/01/16 03:31:44;;;;;;;11.32;5.20;;;;;;;-1.35;74.07;97570.59;4898196;29;20042;-77
2024/01/16 03:34:10;;;;;;;7.68;4.43;;;;;;;-0.99;74.08;97635.34;4910210;29;20044;-78
2024/01/16 03:36:37;;;;;;;7.85;2.97;;;;;;;-1.08;74.66;97622.56;4906555;29;20047;-78
2024/01/16 03:39:03;;;;;;;8.75;4.45;;;;;;;-1.20;74.53;97618.28;4896959;29;20039;-79
2024/01/16 03:41:29;;;;;;;14.30;6.60;;;;;;;-1.01;74.85;97634.50;4922867;29;20043;-78
2024/01/16 03:43:56;;;;;;;8.93;4.45;;;;;;;-1.01;74.69;97652.38;4921526;29;20047;-79
2024/01/16 03:46:22;;;;;;;9.88;4.82;;;;;;;-1.22;74.37;97620.84;4891282;29;20048;-78
2024/01/16 03:48:48;;;;;;;9.93;4.43;;;;;;;-1.06;74.04;97654.91;4909039;29;20056;-79
2024/01/16 03:51:15;;;;;;;14.98;7.05;;;;;;;-1.10;74.40;97642.13;4875935;29;20040;-79
2024/01/16 03:53:41;;;;;;;10.02;5.78;;;;;;;-1.22;74.22;97619.97;4892446;29;20040;-78
2024/01/16 03:56:07;;;;;;;10.18;5.35;;;;;;;-1.36;74.59;97625.00;4920714;29;22269;-78
2024/01/16 03:58:36;;;;;;;10.68;5.80;;;;;;;-1.18;74.44;97639.56;4922619;29;20107;-76
2024/01/16 04:01:02;;;;;;;11.65;6.05;;;;;;;-1.29;74.57;97602.91;4908800;29;20048;-77
2024/01/16 04:03:28;;;;;;;11.98;5.88;;;;;;;-1.40;74.10;97592.66;4904919;29;20055;-73
2024/01/16 04:05:55;;;;;;;8.77;3.65;;;;;;;-1.21;74.44;97617.41;4882973;29;20067;-80
2024/01/16 04:08:21;;;;;;;10.30;5.13;;;;;;;-1.13;74.29;97624.25;4906125;29;20066;-80
2024/01/16 04:10:47;;;;;;;8.35;4.18;;;;;;;-1.40;74.14;97585.88;4903107;29;20050;-77
2024/01/16 04:13:12;;;;;;;17.58;8.60;;;;;;;-1.08;74.25;97636.16;4905721;29;20140;-73
2024/01/16 04:15:39;;;;;;;13.23;6.75;;;;;;;-1.31;74.42;97602.94;4923168;29;20044;-73
2024/01/16 04:18:05;;;;;;;13.32;5.47;;;;;;;-1.38;73.78;97611.41;4888313;29;20052;-75
2024/01/16 04:20:31;;;;;;;11.48;6.53;;;;;;;-1.49;74.54;97606.25;4907569;29;20035;-75
2024/01/16 04:23:00;;;;;;;13.15;5.35;;;;;;;-1.42;74.10;97630.09;4921506;29;20055;-74
2024/01/16 04:25:26;;;;;;;9.10;4.65;;;;;;;-1.64;74.73;97595.97;4888502;29;20046;-74
2024/01/16 04:27:52;;;;;;;15.40;7.55;;;;;;;-1.55;74.38;97613.91;4904399;29;20040;-74
2024/01/16 04:30:20;;;;;;;14.60;6.93;;;;;;;-1.50;74.04;97634.31;4887809;29;20039;-74
2024/01/16 04:32:46;;;;;;;9.65;5.57;;;;;;;-1.54;73.67;97644.50;4897035;29;20107;-75
2024/01/16 04:35:12;;;;;;;11.23;5.63;;;;;;;-1.60;74.34;97636.81;4892268;29;20280;-73
2024/01/16 04:37:38;;;;;;;13.07;5.70;;;;;;;-1.62;74.42;97638.50;4903690;29;20126;-71
2024/01/16 04:40:05;;;;;;;11.38;6.15;;;;;;;-1.82;74.58;97616.28;4920222;29;20151;-73
2024/01/16 04:42:32;;;;;;;10.65;5.65;;;;;;;-1.95;74.55;97608.56;4908191;29;20134;-74
2024/01/16 04:44:58;;;;;;;11.90;6.13;;;;;;;-1.84;74.26;97633.28;4884746;29;20053;-73
2024/01/16 04:47:24;;;;;;;17.30;8.68;;;;;;;-1.77;74.63;97648.63;4901637;29;20127;-76
2024/01/16 04:49:50;;;;;;;16.77;7.60;;;;;;;-1.84;74.80;97632.44;4872569;29;20052;-71
2024/01/16 04:52:16;;;;;;;9.07;4.65;;;;;;;-1.69;74.26;97657.19;4900290;29;20040;-74
2024/01/16 04:54:42;;;;;;;11.10;5.57;;;;;;;-1.59;74.70;97668.28;4900290;29;20048;-72
2024/01/16 04:57:08;;;;;;;14.95;6.55;;;;;;;-1.67;74.75;97645.28;4902400;29;20044;-71
2024/01/16 04:59:34;;;;;;;16.95;7.45;;;;;;;-1.72;74.61;97634.22;4889071;29;20044;-73
2024/01/16 05:02:00;;;;;;;14.63;6.63;;;;;;;-1.58;74.15;97652.97;4905654;29;20056;-72
2024/01/16 05:04:26;;;;;;;10.40;5.82;;;;;;;-1.57;74.29;97636.84;4884761;29;20396;-72
2024/01/16 05:06:52;;;;;;;9.57;3.53;;;;;;;-1.76;74.11;97614.63;4902829;29;20050;-72
2024/01/16 05:09:21;;;;;;;11.15;4.78;;;;;;;-1.49;74.04;97652.16;4901767;29;20115;-72
2024/01/16 05:11:48;;;;;;;10.65;4.50;;;;;;;-1.60;74.05;97635.97;4899713;29;20111;-71
2024/01/16 05:14:14;;;;;;;17.85;7.82;;;;;;;-1.79;74.49;97605.28;4901158;29;20068;-72
2024/01/16 05:16:40;;;;;;;14.63;5.97;;;;;;;-1.93;73.95;97584.78;4902334;29;20169;-71
2024/01/16 05:19:06;;;;;;;16.40;7.55;;;;;;;-1.70;74.01;97614.66;4888811;29;20142;-72
2024/01/16 05:21:32;;;;;;;17.38;8.43;;;;;;;-1.60;74.60;97625.75;4901720;29;20139;-72
2024/01/16 05:23:58;;;;;;;17.13;8.50;;;;;;;-1.36;74.23;97670.94;4896765;29;20044;-72
2024/01/16 05:26:24;;;;;;;16.83;8.05;;;;;;;-1.45;74.25;97635.19;4916619;29;20076;-72
2024/01/16 05:28:51;;;;;;;15.98;7.15;;;;;;;-1.45;74.51;97632.66;4902289;29;20048;-72
2024/01/16 05:31:19;;;;;;;14.32;7.50;;;;;;;-1.49;74.32;97626.66;4901259;29;20539;-72
2024/01/16 05:33:45;;;;;;;16.25;7.38;;;;;;;-1.25;74.10;97663.34;4901413;29;20188;-72
2024/01/16 05:36:11;;;;;;;11.23;6.20;;;;;;;-1.23;73.91;97661.66;4874840;29;20135;-71
2024/01/16 05:38:37;;;;;;;16.00;6.78;;;;;;;-1.22;74.37;97656.56;4900898;29;20044;-72
2024/01/16 05:41:03;;;;;;;17.00;7.65;;;;;;;-1.16;73.93;97671.03;4917265;29;20040;-72
2024/01/16 05:43:29;;;;;;;17.40;8.00;;;;;;;-1.27;73.58;97642.94;4901529;29;20467;-72
2024/01/16 05:45:55;;;;;;;18.02;7.82;;;;;;;-1.16;74.25;97657.41;4901469;29;20126;-71
2024/01/16 05:48:21;;;;;;;15.52;7.00;;;;;;;-1.28;73.83;97642.91;4904829;29;20051;-73
2024/01/16 05:50:47;;;;;;;15.02;7.85;;;;;;;-1.19;73.90;97652.28;4903646;29;20123;-71
2024/01/16 05:53:13;;;;;;;13.77;5.80;;;;;;;-1.26;73.48;97649.75;4919052;29;20051;-72
2024/01/16 05:55:39;;;;;;;14.23;7.43;;;;;;;-1.40;74.02;97613.09;4890675;29;20047;-72
2024/01/16 05:58:06;;;;;;;14.38;6.90;;;;;;;-1.41;74.06;97609.69;4906771;29;20107;-72
2024/01/16 06:00:33;;;;;;;14.38;6.57;;;;;;;-1.62;73.75;97590.03;4902647;29;20044;-74
2024/01/16 06:02:59;;;;;;;14.73;7.03;;;;;;;-1.49;73.58;97605.41;4904265;29;20135;-72
2024/01/16 06:05:25;;;;;;;17.98;8.02;;;;;;;-1.48;73.99;97615.59;4893600;29;20067;-72
2024/01/16 06:07:52;;;;;;;16.13;7.00;;;;;;;-1.57;73.47;97598.56;4893556;29;20078;-71
2024/01/16 06:10:18;;;;;;;18.15;7.85;;;;;;;-1.64;73.98;97591.72;4902118;29;20072;-73
2024/01/16 06:12:44;;;;;;;17.45;7.72;;;;;;;-1.68;73.91;97595.97;4889765;29;20044;-74
2024/01/16 06:15:11;;;;;;;10.27;3.08;;;;;;;-1.15;73.93;97679.53;4875820;29;20097;-73
2024/01/16 06:17:37;;;;;;;13.07;6.20;;;;;;;-1.29;73.88;97651.41;4904860;29;20048;-76
2024/01/16 06:20:07;;;;;;;13.13;6.25;;;;;;;-1.32;73.23;97647.16;4906215;29;20142;-76
2024/01/16 06:22:34;;;;;;;9.82;4.97;;;;;;;-1.17;73.49;97669.34;4876607;29;20048;-74
2024/01/16 06:25:02;;;;;;;14.70;6.97;;;;;;;-1.21;73.43;97657.41;4878834;29;20119;-73
2024/01/16 06:27:31;;;;;;;14.48;7.05;;;;;;;-1.35;73.06;97634.38;4893452;29;20565;-69
2024/01/16 06:29:56;;;;;;;18.10;8.45;;;;;;;-1.54;73.40;97613.88;4907271;29;20601;-72
2024/01/16 06:32:22;;;;;;;16.58;7.85;;;;;;;-1.16;73.57;97658.28;4892900;29;20047;-70
2024/01/16 06:34:48;;;;;;;13.50;8.05;;;;;;;-1.67;72.99;97581.53;4890694;29;20179;-70
2024/01/16 06:37:14;;;;;;;20.08;9.02;;;;;;;-1.32;73.61;97642.06;4874804;29;20423;-69
2024/01/16 06:39:40;;;;;;;17.40;8.00;;;;;;;-1.26;73.52;97654.84;4902986;29;20150;-71
2024/01/16 06:42:07;;;;;;;16.90;8.57;;;;;;;-1.20;73.23;97659.13;4877331;29;20105;-70
2024/01/16 06:44:32;;;;;;;7.20;3.58;;;;;;;-1.43;73.04;97625.81;4915510;29;20048;-69
2024/01/16 06:46:58;;;;;;;10.77;5.45;;;;;;;-1.28;73.72;97648.00;4907013;29;20431;-69
2024/01/16 06:49:25;;;;;;;9.65;5.18;;;;;;;-1.95;73.15;97550.78;4921504;29;20043;-70
2024/01/16 06:51:50;;;;;;;17.85;9.35;;;;;;;-1.65;73.82;97623.16;4907960;29;20543;-69
2024/01/16 06:54:16;;;;;;;26.38;10.73;;;;;;;-1.26;73.47;97659.94;4876790;29;20055;-70
2024/01/16 06:56:43;;;;;;;19.83;9.95;;;;;;;-1.42;73.21;97628.41;4909093;29;20051;-71
2024/01/16 06:59:08;;;;;;;13.88;6.88;;;;;;;-1.32;73.58;97639.50;4893097;29;20047;-71
2024/01/16 07:01:34;;;;;;;16.98;7.88;;;;;;;-1.26;73.73;97664.19;4925366;29;20621;-69
2024/01/16 07:04:01;;;;;;;17.52;7.40;;;;;;;-1.62;73.40;97612.16;4911890;29;20139;-69
2024/01/16 07:06:27;;;;;;;14.35;7.25;;;;;;;-1.29;72.84;97682.91;4906825;29;20048;-71
2024/01/16 07:08:53;;;;;;;15.60;7.43;;;;;;;-1.38;73.47;97672.63;4892418;29;20059;-71
2024/01/16 07:11:20;;;;;;;20.15;7.93;;;;;;;-1.31;73.50;97676.06;4892545;29;20476;-70
2024/01/16 07:13:47;;;;;;;17.10;7.00;;;;;;;-1.25;73.28;97693.97;4897944;29;20044;-69
2024/01/16 07:16:14;;;;;;;16.40;8.13;;;;;;;-1.50;73.57;97636.88;4910463;29;20047;-70
2024/01/16 07:18:40;;;;;;;14.23;6.57;;;;;;;-1.27;73.69;97667.56;4892749;29;20072;-69
2024/01/16 07:21:19;;;;;;;14.73;7.30;;;;;;;-1.19;72.87;97678.69;4879522;29;20072;-70
2024/01/16 07:23:45;;;;;;;16.40;7.70;;;;;;;-1.45;73.20;97650.50;4903550;29;20555;-78
2024/01/16 07:26:11;;;;;;;20.63;9.38;;;;;;;-1.45;73.71;97635.19;4880151;29;20036;-70
2024/01/16 07:28:38;;;;;;;13.48;6.88;;;;;;;-1.19;73.24;97663.38;4892574;29;20521;-73
2024/01/16 07:31:05;;;;;;;19.77;9.07;;;;;;;-1.03;73.60;97689.81;4895834;29;20485;-73
2024/01/16 07:33:31;;;;;;;11.23;4.97;;;;;;;-1.26;73.16;97641.22;4908188;29;20178;-69
2024/01/16 07:35:58;;;;;;;16.13;7.63;;;;;;;-1.42;73.58;97613.09;4891563;29;20055;-74
2024/01/16 07:38:24;;;;;;;16.05;7.20;;;;;;;-1.13;73.43;97654.88;4908521;29;20031;-73
2024/01/16 07:40:50;;;;;;;7.80;4.53;;;;;;;-1.09;73.11;97659.16;4907730;29;20178;-73
2024/01/16 07:43:18;;;;;;;19.48;8.68;;;;;;;-1.00;73.12;97673.66;4906545;29;20040;-72
2024/01/16 07:45:44;;;;;;;20.67;8.38;;;;;;;-1.04;73.10;97647.25;4905725;29;20046;-72
2024/01/16 07:48:10;;;;;;;14.35;6.35;;;;;;;-0.84;73.11;97660.06;4895074;29;20115;-75
2024/01/16 07:50:36;;;;;;;17.73;8.68;;;;;;;-1.23;73.11;97580.84;4906257;29;20158;-74
2024/01/16 07:53:02;;;;;;;24.92;10.23;;;;;;;-0.92;73.57;97621.75;4906884;29;20411;-74
2024/01/16 07:55:28;;;;;;;21.60;9.30;;;;;;;-0.76;73.42;97650.72;4921372;29;20198;-76
2024/01/16 07:57:55;;;;;;;13.07;5.20;;;;;;;-0.88;73.43;97622.59;4886600;29;20063;-73
2024/01/16 08:00:21;;;;;;;18.73;8.63;;;;;;;-0.61;73.39;97678.03;4889064;29;20048;-73
2024/01/16 08:02:48;;;;;;;25.65;10.88;;;;;;;-0.71;73.09;97644.78;4907176;29;20043;-73
2024/01/16 08:05:15;;;;;;;22.25;9.27;;;;;;;-0.51;73.43;97666.13;4905762;29;20040;-74
2024/01/16 08:07:44;;;;;;;19.90;8.75;;;;;;;-0.73;73.18;97615.84;4907347;29;20095;-77
2024/01/16 08:10:10;;;;;;;17.25;7.95;;;;;;;-0.62;73.40;97635.44;4919818;29;20078;-72
2024/01/16 08:12:37;;;;;;;22.63;9.88;;;;;;;-0.43;72.95;97640.56;4929687;29;20039;-71
2024/01/16 08:15:05;;;;;;;25.23;9.77;;;;;;;-0.28;73.26;97633.75;4877891;29;20549;-73
2024/01/16 08:17:31;;;;;;;16.23;8.52;;;;;;;-0.29;72.77;97626.91;4890942;29;20132;-77
2024/01/16 08:19:57;;;;;;;20.88;9.43;;;;;;;-0.20;73.29;97624.38;4875169;29;20376;-73
2024/01/16 08:22:25;;;;;;;19.50;9.02;;;;;;;-0.50;73.42;97574.97;4893205;29;20055;-75
2024/01/16 08:24:55;;;;;;;18.48;8.68;;;;;;;-0.19;72.85;97610.75;4889843;29;20047;-71
2024/01/16 08:27:21;;;;;;;19.00;9.40;;;;;;;-0.23;72.76;97606.47;4905479;29;20511;-71
2024/01/16 08:29:50;;;;;;;17.13;9.25;;;;;;;-0.34;73.27;97580.91;4908088;29;20052;-72
2024/01/16 08:32:17;;;;;;;18.80;9.25;;;;;;;-0.10;73.10;97620.09;4920741;29;20072;-70
2024/01/16 08:34:43;;;;;;;15.85;8.38;;;;;;;-0.06;73.08;97632.88;4904649;29;20123;-72
2024/01/16 08:37:09;;;;;;;18.17;8.98;;;;;;;-0.35;72.91;97592.00;4908720;29;20055;-72
2024/01/16 08:39:35;;;;;;;19.52;9.45;;;;;;;-0.09;73.19;97635.44;4903580;29;20396;-70
2024/01/16 08:42:02;;;;;;;14.43;7.60;;;;;;;-0.06;73.08;97639.72;4919966;29;20047;-78
2024/01/16 08:44:29;;;;;;;15.05;7.43;;;;;;;-0.35;72.67;97597.09;4894706;29;20076;-72
2024/01/16 08:46:55;;;;;;;16.90;7.90;;;;;;;-0.26;72.82;97609.91;4906386;29;20133;-73
2024/01/16 08:49:21;;;;;;;18.05;8.90;;;;;;;-0.02;72.85;97649.94;4893707;29;20100;-72
2024/01/16 08:51:47;;;;;;;18.25;8.55;;;;;;;0.02;73.38;97652.47;4905561;29;20075;-72
2024/01/16 08:54:15;;;;;;;17.67;8.52;;;;;;;0.01;73.46;97645.66;4908295;29;20158;-72
2024/01/16 08:56:41;;;;;;;17.42;8.85;;;;;;;-0.11;73.34;97613.28;4903633;29;20055;-73
2024/01/16 08:59:08;;;;;;;18.35;8.80;;;;;;;0.05;72.68;97637.13;4926659;29;20094;-71
2024/01/16 09:01:34;;;;;;;22.98;10.20;;;;;;;-0.01;73.02;97602.22;4925609;29;20114;-72
2024/01/16 09:04:00;;;;;;;19.42;8.88;;;;;;;-0.04;72.26;97585.13;4903490;29;20518;-71
2024/01/16 09:06:25;;;;;;;11.60;6.75;;;;;;;0.21;72.60;97622.63;4922352;29;20040;-75
2024/01/16 09:08:51;;;;;;;18.13;7.55;;;;;;;0.19;72.96;97620.06;4892115;29;20044;-70
2024/01/16 09:11:17;;;;;;;17.83;8.50;;;;;;;0.14;73.21;97585.94;4922517;29;20413;-72
2024/01/16 09:13:43;;;;;;;17.73;8.38;;;;;;;0.42;72.84;97611.47;4921821;29;20063;-70
2024/01/16 09:16:09;;;;;;;19.65;8.98;;;;;;;0.55;72.82;97618.22;4902791;29;20039;-72
2024/01/16 09:18:35;;;;;;;16.02;8.15;;;;;;;0.49;72.50;97586.69;4920963;29;20051;-69
2024/01/16 09:21:01;;;;;;;19.38;8.50;;;;;;;0.72;72.01;97605.38;4910985;29;20044;-72
2024/01/16 09:23:29;;;;;;;18.80;8.85;;;;;;;0.18;71.91;97517.75;4913122;29;20111;-70
2024/01/16 09:25:55;;;;;;;17.88;8.55;;;;;;;0.71;72.49;97593.44;4935234;29;20647;-70
2024/01/16 09:28:21;;;;;;;16.40;8.77;;;;;;;0.39;72.33;97521.91;4919712;29;20052;-71
2024/01/16 09:30:55;;;;;;;15.65;7.20;;;;;;;0.97;72.39;97600.13;4936528;29;20075;-73
2024/01/16 09:33:30;;;;;;;13.55;7.45;;;;;;;0.79;72.07;97570.34;4909369;29;20066;-72
2024/01/16 09:35:57;;;;;;;15.70;8.10;;;;;;;0.66;71.96;97563.59;4921642;29;20103;-71
2024/01/16 09:38:23;;;;;;;14.18;6.93;;;;;;;0.55;71.99;97544.00;4906111;29;20118;-73
2024/01/16 09:41:02;;;;;;;12.68;6.32;;;;;;;0.80;71.61;97600.22;4932346;29;20039;-74
2024/01/16 09:43:32;;;;;;;17.33;7.85;;;;;;;0.73;71.21;97601.97;4918362;29;20059;-71
2024/01/16 09:46:10;;;;;;;13.88;7.13;;;;;;;0.54;70.87;97585.84;4923282;29;20044;-74
2024/01/16 09:48:37;;;;;;;15.25;8.15;;;;;;;0.60;71.90;97582.41;4934509;29;20119;-71
2024/01/16 09:51:06;;;;;;;17.50;8.30;;;;;;;0.77;71.85;97594.28;4934068;29;20071;-71
2024/01/16 09:53:36;;;;;;;14.77;6.68;;;;;;;0.39;71.68;97524.47;4919379;29;20090;-73
2024/01/16 09:56:04;;;;;;;16.42;8.18;;;;;;;0.78;71.02;97578.88;4918137;29;20044;-72
2024/01/16 09:58:43;;;;;;;15.05;7.50;;;;;;;0.73;71.14;97575.53;4906530;29;20044;-71
2024/01/16 10:01:12;;;;;;;11.45;6.53;;;;;;;0.73;71.40;97575.53;4920188;29;20050;-70
2024/01/16 10:03:45;;;;;;;15.68;7.70;;;;;;;0.80;71.39;97569.47;4923109;29;20080;-73
2024/01/16 10:06:13;;;;;;;14.38;7.53;;;;;;;0.73;70.89;97560.16;4922443;29;20035;-73
2024/01/16 10:08:48;;;;;;;18.98;8.50;;;;;;;0.35;71.07;97497.19;4906930;29;20042;-71
2024/01/16 10:11:16;;;;;;;14.55;8.02;;;;;;;0.83;70.71;97581.44;4920695;29;20050;-70
2024/01/16 10:13:55;;;;;;;15.77;8.05;;;;;;;0.86;71.10;97576.31;4904599;29;20067;-72
2024/01/16 10:16:22;;;;;;;15.82;7.35;;;;;;;0.57;70.60;97536.34;4923007;29;20074;-75
2024/01/16 10:18:48;;;;;;;17.80;8.13;;;;;;;0.58;70.24;97559.34;4911160;29;20043;-80
2024/01/16 10:21:29;;;;;;;13.20;7.07;;;;;;;0.67;70.28;97578.94;4927054;29;20031;-79
2024/01/16 10:23:55;;;;;;;14.88;7.53;;;;;;;0.45;70.17;97552.59;4905922;29;20111;-71
2024/01/16 10:26:21;;;;;;;16.33;7.88;;;;;;;0.65;70.38;97573.00;4906743;29;20047;-72
2024/01/16 10:28:47;;;;;;;14.73;6.70;;;;;;;0.49;70.22;97572.22;4924938;29;20052;-74
2024/01/16 10:31:35;;;;;;;19.20;9.73;;;;;;;0.38;70.65;97546.66;4918900;29;20080;-71
2024/01/16 10:34:24;;;;;;;18.85;8.90;;;;;;;0.39;70.16;97544.94;4910516;29;20082;-71
2024/01/16 10:39:50;;;;;;;16.98;8.13;;;;;;;0.45;70.46;97525.28;4920918;29;20067;-73
2024/01/16 10:42:17;;;;;;;17.48;8.80;;;;;;;0.56;70.43;97540.59;4932162;29;20036;-72
2024/01/16 10:44:57;;;;;;;19.27;9.40;;;;;;;0.41;70.06;97497.16;4906614;29;20036;-70
2024/01/16 10:47:29;;;;;;;17.55;9.15;;;;;;;0.66;70.76;97541.44;4905756;29;20048;-74
2024/01/16 10:49:57;;;;;;;;;;;;;;;0.63;69.84;97546.56;4935532;29;20067;-73
2024/01/16 10:52:28;;;;;;;16.50;7.90;;;;;;;0.52;70.31;97531.25;4936658;29;20297;-73
2024/01/16 10:55:18;;;;;;;23.40;9.93;;;;;;;0.41;69.84;97512.53;4920847;29;20043;-72
2024/01/16 10:58:00;;;;;;;15.25;8.25;;;;;;;0.60;70.35;97534.59;4919855;29;20071;-74
2024/01/16 11:00:29;;;;;;;16.33;8.57;;;;;;;0.65;70.01;97541.41;4940141;29;20130;-74
2024/01/16 11:03:30;;;;;;;18.35;9.65;;;;;;;0.64;70.15;97534.59;4937975;29;20040;-74
2024/01/16 11:06:06;;;;;;;18.73;8.85;;;;;;;0.13;70.29;97441.00;4933968;29;20039;-73
2024/01/16 11:08:45;;;;;;;17.58;8.98;;;;;;;0.31;69.50;97477.63;4923022;29;20036;-72
2024/01/16 11:11:16;;;;;;;16.00;8.07;;;;;;;0.37;70.02;97473.31;4924649;29;20054;-70
2024/01/16 11:16:32;;;;;;;16.98;8.93;;;;;;;0.09;70.09;97454.69;4927020;29;20422;-71
2024/01/16 11:19:00;;;;;;;17.83;8.25;;;;;;;0.41;69.80;97513.38;4937395;29;20091;-72
2024/01/16 11:21:48;;;;;;;19.48;9.57;;;;;;;0.23;69.40;97475.94;4910628;29;20055;-69
2024/01/16 11:24:16;;;;;;;17.50;9.25;;;;;;;0.35;69.62;97504.88;4936196;29;20046;-70
2024/01/16 11:26:43;;;;;;;16.85;7.28;;;;;;;0.41;69.99;97527.88;4905800;29;20058;-72
2024/01/16 11:29:31;;;;;;;17.30;7.57;;;;;;;0.34;69.17;97518.50;4922516;29;20068;-72
2024/01/16 11:32:03;;;;;;;17.02;8.23;;;;;;;0.10;69.65;97500.72;4941076;29;20080;-76
2024/01/16 11:34:43;;;;;;;14.48;7.45;;;;;;;0.28;69.21;97516.84;4923645;29;20054;-75
2024/01/16 11:37:13;;;;;;;13.35;7.25;;;;;;;0.22;69.62;97527.97;4908575;29;20111;-73